sensor_id;sensor_type;location;lat;lon;timestamp;temperature;humidity
15819;DHT22;8010;53.986;12.106;2024-02-23T00:01:25;11.00;99.90
15819;DHT22;8010;53.986;12.106;2024-02-23T00:03:51;11.00;99.90
15819;DHT22;8010;53.986;12.106;2024-02-23T00:06:17;11.10;99.90
15819;DHT22;8010;53.986;12.106;2024-02-23T00:08:42;11.00;99.90
15819;DHT22;8010;53.986;12.106;2024-02-23T00:11:08;11.00;99.90
15819;DHT22;8010;53.986;12.106;2024-02-23T00:13:33;11.10;99.90
15819;DHT22;8010;53.986;12.106;2024-02-23T00:15:59;11.10;99.90
15819;DHT22;8010;53.986;12.106;2024-02-23T00:18:24;11.10;99.90
15819;DHT22;8010;53.986;12.106;2024-02-23T00:20:50;11.10;99.90
15819;DHT22;8010;53.986;12.106;2024-02-23T00:23:15;11.20;99.90
15819;DHT22;8010;53.986;12.106;2024-02-23T00:25:41;11.20;99.90
15819;DHT22;8010;53.986;12.106;2024-02-23T00:28:07;11.20;99.90
15819;DHT22;8010;53.986;12.106;2024-02-23T00:30:33;11.30;99.90
15819;DHT22;8010;53.986;12.106;2024-02-23T00:32:58;11.30;99.90
15819;DHT22;8010;53.986;12.106;2024-02-23T00:35:24;11.30;99.90
15819;DHT22;8010;53.986;12.106;2024-02-23T00:37:49;11.30;99.90
15819;DHT22;8010;53.986;12.106;2024-02-23T00:40:15;11.30;99.90
15819;DHT22;8010;53.986;12.106;2024-02-23T00:42:41;11.40;99.90
15819;DHT22;8010;53.986;12.106;2024-02-23T00:45:07;11.40;99.90
15819;DHT22;8010;53.986;12.106;2024-02-23T00:47:32;11.40;99.90
15819;DHT22;8010;53.986;12.106;2024-02-23T00:49:58;11.40;99.90
15819;DHT22;8010;53.986;12.106;2024-02-23T00:52:24;11.30;99.90
15819;DHT22;8010;53.986;12.106;2024-02-23T00:54:50;11.30;99.90
15819;DHT22;8010;53.986;12.106;2024-02-23T00:57:15;11.20;99.90
15819;DHT22;8010;53.986;12.106;2024-02-23T00:59:42;11.20;99.90
15819;DHT22;8010;53.986;12.106;2024-02-23T01:02:07;11.10;99.90
15819;DHT22;8010;53.986;12.106;2024-02-23T01:04:33;11.00;99.90
15819;DHT22;8010;53.986;12.106;2024-02-23T01:06:58;10.90;99.90
15819;DHT22;8010;53.986;12.106;2024-02-23T01:09:25;10.80;99.90
15819;DHT22;8010;53.986;12.106;2024-02-23T01:11:50;10.70;99.90
15819;DHT22;8010;53.986;12.106;2024-02-23T01:14:16;10.60;99.90
15819;DHT22;8010;53.986;12.106;2024-02-23T01:16:41;10.50;99.90
15819;DHT22;8010;53.986;12.106;2024-02-23T01:19:07;10.50;99.90
15819;DHT22;8010;53.986;12.106;2024-02-23T01:21:33;10.40;99.90
15819;DHT22;8010;53.986;12.106;2024-02-23T01:23:58;10.30;99.90
15819;DHT22;8010;53.986;12.106;2024-02-23T01:26:25;10.20;99.90
15819;DHT22;8010;53.986;12.106;2024-02-23T01:28:51;10.20;99.90
15819;DHT22;8010;53.986;12.106;2024-02-23T01:31:17;10.10;99.90
15819;DHT22;8010;53.986;12.106;2024-02-23T01:33:42;10.10;99.90
15819;DHT22;8010;53.986;12.106;2024-02-23T01:36:08;10.10;99.90
15819;DHT22;8010;53.986;12.106;2024-02-23T01:38:34;10.10;99.90
15819;DHT22;8010;53.986;12.106;2024-02-23T01:41:00;10.10;99.90
15819;DHT22;8010;53.986;12.106;2024-02-23T01:43:25;10.00;99.90
15819;DHT22;8010;53.986;12.106;2024-02-23T01:45:51;10.10;99.90
15819;DHT22;8010;53.986;12.106;2024-02-23T01:48:17;10.20;99.90
15819;DHT22;8010;53.986;12.106;2024-02-23T01:50:43;10.10;99.90
15819;DHT22;8010;53.986;12.106;2024-02-23T01:53:10;10.10;99.90
15819;DHT22;8010;53.986;12.106;2024-02-23T01:55:37;10.10;99.90
15819;DHT22;8010;53.986;12.106;2024-02-23T01:58:05;10.00;99.90
15819;DHT22;8010;53.986;12.106;2024-02-23T02:00:31;9.90;99.90
15819;DHT22;8010;53.986;12.106;2024-02-23T02:02:57;9.90;99.90
15819;DHT22;8010;53.986;12.106;2024-02-23T02:05:22;9.90;99.90
15819;DHT22;8010;53.986;12.106;2024-02-23T02:07:50;9.90;99.90
15819;DHT22;8010;53.986;12.106;2024-02-23T02:10:20;9.80;99.90
15819;DHT22;8010;53.986;12.106;2024-02-23T02:12:46;9.80;99.90
15819;DHT22;8010;53.986;12.106;2024-02-23T02:15:11;9.90;99.90
15819;DHT22;8010;53.986;12.106;2024-02-23T02:17:37;9.80;99.90
15819;DHT22;8010;53.986;12.106;2024-02-23T02:20:03;9.70;99.90
15819;DHT22;8010;53.986;12.106;2024-02-23T02:22:35;9.70;99.90
15819;DHT22;8010;53.986;12.106;2024-02-23T02:25:00;9.70;99.90
15819;DHT22;8010;53.986;12.106;2024-02-23T02:27:26;9.70;99.90
15819;DHT22;8010;53.986;12.106;2024-02-23T02:29:52;9.60;99.90
15819;DHT22;8010;53.986;12.106;2024-02-23T02:32:17;9.60;99.90
15819;DHT22;8010;53.986;12.106;2024-02-23T02:34:43;9.50;99.90
15819;DHT22;8010;53.986;12.106;2024-02-23T02:37:09;9.50;99.90
15819;DHT22;8010;53.986;12.106;2024-02-23T02:39:34;9.40;99.90
15819;DHT22;8010;53.986;12.106;2024-02-23T02:42:01;9.50;99.90
15819;DHT22;8010;53.986;12.106;2024-02-23T02:44:26;9.50;99.90
15819;DHT22;8010;53.986;12.106;2024-02-23T02:46:56;9.50;99.90
15819;DHT22;8010;53.986;12.106;2024-02-23T02:49:22;9.60;99.90
15819;DHT22;8010;53.986;12.106;2024-02-23T02:51:47;9.60;99.90
15819;DHT22;8010;53.986;12.106;2024-02-23T02:54:13;9.60;99.90
15819;DHT22;8010;53.986;12.106;2024-02-23T02:56:48;9.60;99.90
15819;DHT22;8010;53.986;12.106;2024-02-23T02:59:15;9.40;99.90
15819;DHT22;8010;53.986;12.106;2024-02-23T03:01:41;8.80;99.90
15819;DHT22;8010;53.986;12.106;2024-02-23T03:04:08;8.50;99.90
15819;DHT22;8010;53.986;12.106;2024-02-23T03:06:33;8.20;99.90
15819;DHT22;8010;53.986;12.106;2024-02-23T03:08:59;8.00;99.90
15819;DHT22;8010;53.986;12.106;2024-02-23T03:11:24;7.90;99.90
15819;DHT22;8010;53.986;12.106;2024-02-23T03:13:50;7.70;99.90
15819;DHT22;8010;53.986;12.106;2024-02-23T03:16:17;7.60;99.90
15819;DHT22;8010;53.986;12.106;2024-02-23T03:18:42;7.60;99.90
15819;DHT22;8010;53.986;12.106;2024-02-23T03:21:08;7.50;99.90
15819;DHT22;8010;53.986;12.106;2024-02-23T03:23:35;7.40;99.90
15819;DHT22;8010;53.986;12.106;2024-02-23T03:26:01;7.30;99.90
15819;DHT22;8010;53.986;12.106;2024-02-23T03:28:26;7.30;99.90
15819;DHT22;8010;53.986;12.106;2024-02-23T03:30:52;7.20;99.90
15819;DHT22;8010;53.986;12.106;2024-02-23T03:33:18;7.20;99.90
15819;DHT22;8010;53.986;12.106;2024-02-23T03:35:43;7.20;99.90
15819;DHT22;8010;53.986;12.106;2024-02-23T03:38:09;7.10;99.90
15819;DHT22;8010;53.986;12.106;2024-02-23T03:40:34;7.10;99.90
15819;DHT22;8010;53.986;12.106;2024-02-23T03:43:01;7.10;99.90
15819;DHT22;8010;53.986;12.106;2024-02-23T03:45:27;7.10;99.90
15819;DHT22;8010;53.986;12.106;2024-02-23T03:47:53;7.10;99.90
15819;DHT22;8010;53.986;12.106;2024-02-23T03:50:18;7.20;99.90
15819;DHT22;8010;53.986;12.106;2024-02-23T03:52:44;7.20;99.90
15819;DHT22;8010;53.986;12.106;2024-02-23T03:55:09;7.20;99.90
15819;DHT22;8010;53.986;12.106;2024-02-23T03:57:35;7.20;99.90
15819;DHT22;8010;53.986;12.106;2024-02-23T04:00:00;7.20;99.90
15819;DHT22;8010;53.986;12.106;2024-02-23T04:02:26;7.10;99.90
15819;DHT22;8010;53.986;12.106;2024-02-23T04:04:51;7.10;99.90
15819;DHT22;8010;53.986;12.106;2024-02-23T04:07:17;7.10;99.90
15819;DHT22;8010;53.986;12.106;2024-02-23T04:09:42;7.10;99.90
15819;DHT22;8010;53.986;12.106;2024-02-23T04:12:08;7.10;99.90
15819;DHT22;8010;53.986;12.106;2024-02-23T04:14:33;7.10;99.90
15819;DHT22;8010;53.986;12.106;2024-02-23T04:17:02;7.10;99.90
15819;DHT22;8010;53.986;12.106;2024-02-23T04:19:28;7.10;99.90
15819;DHT22;8010;53.986;12.106;2024-02-23T04:21:53;7.10;99.90
15819;DHT22;8010;53.986;12.106;2024-02-23T04:24:19;7.10;99.90
15819;DHT22;8010;53.986;12.106;2024-02-23T04:26:44;7.10;99.90
15819;DHT22;8010;53.986;12.106;2024-02-23T04:29:10;7.00;99.90
15819;DHT22;8010;53.986;12.106;2024-02-23T04:31:37;7.00;99.90
15819;DHT22;8010;53.986;12.106;2024-02-23T04:34:03;7.00;99.90
15819;DHT22;8010;53.986;12.106;2024-02-23T04:36:28;7.00;99.90
15819;DHT22;8010;53.986;12.106;2024-02-23T04:38:54;7.00;99.90
15819;DHT22;8010;53.986;12.106;2024-02-23T04:41:20;7.00;99.90
15819;DHT22;8010;53.986;12.106;2024-02-23T04:43:49;7.00;99.90
15819;DHT22;8010;53.986;12.106;2024-02-23T04:46:15;7.00;99.90
15819;DHT22;8010;53.986;12.106;2024-02-23T04:48:41;6.90;99.90
15819;DHT22;8010;53.986;12.106;2024-02-23T04:51:07;7.00;99.90
15819;DHT22;8010;53.986;12.106;2024-02-23T04:53:38;7.00;99.90
15819;DHT22;8010;53.986;12.106;2024-02-23T04:56:04;7.00;99.90
15819;DHT22;8010;53.986;12.106;2024-02-23T04:58:30;7.00;99.90
15819;DHT22;8010;53.986;12.106;2024-02-23T05:00:55;7.00;99.90
15819;DHT22;8010;53.986;12.106;2024-02-23T05:03:21;7.00;99.90
15819;DHT22;8010;53.986;12.106;2024-02-23T05:05:46;7.00;99.90
15819;DHT22;8010;53.986;12.106;2024-02-23T05:08:12;6.90;99.90
15819;DHT22;8010;53.986;12.106;2024-02-23T05:10:37;6.90;99.90
15819;DHT22;8010;53.986;12.106;2024-02-23T05:13:03;6.90;99.90
15819;DHT22;8010;53.986;12.106;2024-02-23T05:15:29;6.90;99.90
15819;DHT22;8010;53.986;12.106;2024-02-23T05:17:54;6.90;99.90
15819;DHT22;8010;53.986;12.106;2024-02-23T05:20:20;6.90;99.90
15819;DHT22;8010;53.986;12.106;2024-02-23T05:22:45;6.80;99.90
15819;DHT22;8010;53.986;12.106;2024-02-23T05:25:11;6.70;99.90
15819;DHT22;8010;53.986;12.106;2024-02-23T05:27:37;6.70;99.90
15819;DHT22;8010;53.986;12.106;2024-02-23T05:30:02;6.70;99.90
15819;DHT22;8010;53.986;12.106;2024-02-23T05:32:28;6.60;99.90
15819;DHT22;8010;53.986;12.106;2024-02-23T05:34:54;6.60;99.90
15819;DHT22;8010;53.986;12.106;2024-02-23T05:37:19;6.60;99.90
15819;DHT22;8010;53.986;12.106;2024-02-23T05:39:45;6.60;99.90
15819;DHT22;8010;53.986;12.106;2024-02-23T05:42:11;6.60;99.90
15819;DHT22;8010;53.986;12.106;2024-02-23T05:44:37;6.60;99.90
15819;DHT22;8010;53.986;12.106;2024-02-23T05:47:03;6.60;99.90
15819;DHT22;8010;53.986;12.106;2024-02-23T05:49:28;6.60;99.90
15819;DHT22;8010;53.986;12.106;2024-02-23T05:51:54;6.60;99.90
15819;DHT22;8010;53.986;12.106;2024-02-23T05:54:20;6.60;99.90
15819;DHT22;8010;53.986;12.106;2024-02-23T05:56:46;6.60;99.90
15819;DHT22;8010;53.986;12.106;2024-02-23T05:59:11;6.60;99.90
15819;DHT22;8010;53.986;12.106;2024-02-23T06:01:37;6.60;99.90
15819;DHT22;8010;53.986;12.106;2024-02-23T06:04:02;6.50;99.90
15819;DHT22;8010;53.986;12.106;2024-02-23T06:06:28;6.50;99.90
15819;DHT22;8010;53.986;12.106;2024-02-23T06:08:54;6.50;99.90
15819;DHT22;8010;53.986;12.106;2024-02-23T06:11:19;6.50;99.90
15819;DHT22;8010;53.986;12.106;2024-02-23T06:13:45;6.50;99.90
15819;DHT22;8010;53.986;12.106;2024-02-23T06:16:11;6.50;99.90
15819;DHT22;8010;53.986;12.106;2024-02-23T06:18:37;6.50;99.90
15819;DHT22;8010;53.986;12.106;2024-02-23T06:21:11;6.50;99.90
15819;DHT22;8010;53.986;12.106;2024-02-23T06:23:37;6.40;99.90
15819;DHT22;8010;53.986;12.106;2024-02-23T06:26:02;6.40;99.90
15819;DHT22;8010;53.986;12.106;2024-02-23T06:28:28;6.40;99.90
15819;DHT22;8010;53.986;12.106;2024-02-23T06:30:53;6.40;99.90
15819;DHT22;8010;53.986;12.106;2024-02-23T06:33:19;6.40;99.90
15819;DHT22;8010;53.986;12.106;2024-02-23T06:35:44;6.40;99.90
15819;DHT22;8010;53.986;12.106;2024-02-23T06:38:10;6.40;99.90
15819;DHT22;8010;53.986;12.106;2024-02-23T06:40:35;6.30;99.90
15819;DHT22;8010;53.986;12.106;2024-02-23T06:43:01;6.30;99.90
15819;DHT22;8010;53.986;12.106;2024-02-23T06:45:27;6.40;99.90
15819;DHT22;8010;53.986;12.106;2024-02-23T06:47:52;6.40;99.90
15819;DHT22;8010;53.986;12.106;2024-02-23T06:50:18;6.30;99.90
15819;DHT22;8010;53.986;12.106;2024-02-23T06:52:43;6.30;99.90
15819;DHT22;8010;53.986;12.106;2024-02-23T06:55:09;6.30;99.90
15819;DHT22;8010;53.986;12.106;2024-02-23T06:57:35;6.30;99.90
15819;DHT22;8010;53.986;12.106;2024-02-23T07:00:02;6.30;99.90
15819;DHT22;8010;53.986;12.106;2024-02-23T07:02:28;6.30;99.90
15819;DHT22;8010;53.986;12.106;2024-02-23T07:04:57;6.30;99.90
15819;DHT22;8010;53.986;12.106;2024-02-23T07:07:23;6.30;99.90
15819;DHT22;8010;53.986;12.106;2024-02-23T07:09:49;6.30;99.90
15819;DHT22;8010;53.986;12.106;2024-02-23T07:12:15;6.30;99.90
15819;DHT22;8010;53.986;12.106;2024-02-23T07:14:41;6.30;99.90
15819;DHT22;8010;53.986;12.106;2024-02-23T07:17:06;6.30;99.90
15819;DHT22;8010;53.986;12.106;2024-02-23T07:19:33;6.30;99.90
15819;DHT22;8010;53.986;12.106;2024-02-23T07:21:59;6.30;99.90
15819;DHT22;8010;53.986;12.106;2024-02-23T07:24:24;6.40;99.90
15819;DHT22;8010;53.986;12.106;2024-02-23T07:26:50;6.40;99.90
15819;DHT22;8010;53.986;12.106;2024-02-23T07:29:15;6.40;99.90
15819;DHT22;8010;53.986;12.106;2024-02-23T07:31:41;6.50;99.90
15819;DHT22;8010;53.986;12.106;2024-02-23T07:34:06;6.50;99.90
15819;DHT22;8010;53.986;12.106;2024-02-23T07:36:32;6.50;99.90
15819;DHT22;8010;53.986;12.106;2024-02-23T07:38:57;6.50;99.90
15819;DHT22;8010;53.986;12.106;2024-02-23T07:41:23;6.50;99.90
15819;DHT22;8010;53.986;12.106;2024-02-23T07:43:48;6.60;99.90
15819;DHT22;8010;53.986;12.106;2024-02-23T07:46:14;6.60;99.90
15819;DHT22;8010;53.986;12.106;2024-02-23T07:48:41;6.70;99.90
15819;DHT22;8010;53.986;12.106;2024-02-23T07:51:07;6.70;99.90
15819;DHT22;8010;53.986;12.106;2024-02-23T07:53:32;6.70;99.90
15819;DHT22;8010;53.986;12.106;2024-02-23T07:55:59;6.70;99.90
15819;DHT22;8010;53.986;12.106;2024-02-23T07:58:27;6.70;99.90
15819;DHT22;8010;53.986;12.106;2024-02-23T08:00:53;6.80;99.90
15819;DHT22;8010;53.986;12.106;2024-02-23T08:03:18;6.70;99.90
15819;DHT22;8010;53.986;12.106;2024-02-23T08:05:44;6.70;99.90
15819;DHT22;8010;53.986;12.106;2024-02-23T08:08:10;6.70;99.90
15819;DHT22;8010;53.986;12.106;2024-02-23T08:10:35;6.70;99.90
15819;DHT22;8010;53.986;12.106;2024-02-23T08:13:01;6.70;99.90
15819;DHT22;8010;53.986;12.106;2024-02-23T08:15:26;6.80;99.90
15819;DHT22;8010;53.986;12.106;2024-02-23T08:17:52;6.80;99.90
15819;DHT22;8010;53.986;12.106;2024-02-23T08:20:17;7.00;99.90
15819;DHT22;8010;53.986;12.106;2024-02-23T08:22:43;7.10;99.90
15819;DHT22;8010;53.986;12.106;2024-02-23T08:25:10;7.20;99.90
15819;DHT22;8010;53.986;12.106;2024-02-23T08:27:35;7.30;99.90
15819;DHT22;8010;53.986;12.106;2024-02-23T08:30:01;7.20;99.90
15819;DHT22;8010;53.986;12.106;2024-02-23T08:32:26;7.20;99.90
15819;DHT22;8010;53.986;12.106;2024-02-23T08:34:52;7.10;99.90
15819;DHT22;8010;53.986;12.106;2024-02-23T08:37:28;7.20;99.90
15819;DHT22;8010;53.986;12.106;2024-02-23T08:39:53;7.20;99.90
15819;DHT22;8010;53.986;12.106;2024-02-23T08:42:19;7.20;99.90
15819;DHT22;8010;53.986;12.106;2024-02-23T08:44:45;7.20;99.90
15819;DHT22;8010;53.986;12.106;2024-02-23T08:47:10;7.10;99.90
15819;DHT22;8010;53.986;12.106;2024-02-23T08:49:36;7.20;99.90
15819;DHT22;8010;53.986;12.106;2024-02-23T08:52:02;7.10;99.90
15819;DHT22;8010;53.986;12.106;2024-02-23T08:54:29;7.10;99.90
15819;DHT22;8010;53.986;12.106;2024-02-23T08:56:55;7.20;99.90
15819;DHT22;8010;53.986;12.106;2024-02-23T08:59:20;7.30;99.90
15819;DHT22;8010;53.986;12.106;2024-02-23T09:01:46;7.40;99.90
15819;DHT22;8010;53.986;12.106;2024-02-23T09:04:13;7.60;99.90
15819;DHT22;8010;53.986;12.106;2024-02-23T09:06:38;7.70;99.90
15819;DHT22;8010;53.986;12.106;2024-02-23T09:09:04;7.70;99.90
15819;DHT22;8010;53.986;12.106;2024-02-23T09:11:29;7.70;99.90
15819;DHT22;8010;53.986;12.106;2024-02-23T09:13:55;7.90;99.90
15819;DHT22;8010;53.986;12.106;2024-02-23T09:16:20;8.00;99.90
15819;DHT22;8010;53.986;12.106;2024-02-23T09:18:48;8.10;99.90
15819;DHT22;8010;53.986;12.106;2024-02-23T09:21:14;8.10;99.90
15819;DHT22;8010;53.986;12.106;2024-02-23T09:23:40;8.10;99.90
15819;DHT22;8010;53.986;12.106;2024-02-23T09:26:11;8.00;99.90
15819;DHT22;8010;53.986;12.106;2024-02-23T09:28:37;7.90;99.90
15819;DHT22;8010;53.986;12.106;2024-02-23T09:31:03;7.90;99.90
15819;DHT22;8010;53.986;12.106;2024-02-23T09:33:30;8.00;99.90
15819;DHT22;8010;53.986;12.106;2024-02-23T09:35:56;8.00;99.90
15819;DHT22;8010;53.986;12.106;2024-02-23T09:38:22;8.10;99.90
15819;DHT22;8010;53.986;12.106;2024-02-23T09:40:50;8.10;99.90
15819;DHT22;8010;53.986;12.106;2024-02-23T09:43:16;8.00;99.90
15819;DHT22;8010;53.986;12.106;2024-02-23T09:45:42;8.00;99.90
15819;DHT22;8010;53.986;12.106;2024-02-23T09:48:10;7.90;99.90
15819;DHT22;8010;53.986;12.106;2024-02-23T09:50:37;7.90;99.90
15819;DHT22;8010;53.986;12.106;2024-02-23T09:53:04;8.00;99.90
15819;DHT22;8010;53.986;12.106;2024-02-23T09:55:34;8.20;99.90
15819;DHT22;8010;53.986;12.106;2024-02-23T09:57:59;8.20;99.90
15819;DHT22;8010;53.986;12.106;2024-02-23T10:00:25;8.10;99.90
15819;DHT22;8010;53.986;12.106;2024-02-23T10:02:53;8.10;99.90
15819;DHT22;8010;53.986;12.106;2024-02-23T10:05:19;8.10;99.90
15819;DHT22;8010;53.986;12.106;2024-02-23T10:07:47;8.00;99.90
15819;DHT22;8010;53.986;12.106;2024-02-23T10:10:13;7.90;99.90
15819;DHT22;8010;53.986;12.106;2024-02-23T10:12:38;8.00;99.90
15819;DHT22;8010;53.986;12.106;2024-02-23T10:15:05;8.00;99.90
15819;DHT22;8010;53.986;12.106;2024-02-23T10:17:31;8.30;99.90
15819;DHT22;8010;53.986;12.106;2024-02-23T10:19:56;8.30;99.90
15819;DHT22;8010;53.986;12.106;2024-02-23T10:22:30;8.40;99.90
15819;DHT22;8010;53.986;12.106;2024-02-23T10:24:56;8.50;99.90
15819;DHT22;8010;53.986;12.106;2024-02-23T10:27:23;8.60;99.90
15819;DHT22;8010;53.986;12.106;2024-02-23T10:29:51;8.60;99.90
15819;DHT22;8010;53.986;12.106;2024-02-23T10:32:18;8.70;99.90
15819;DHT22;8010;53.986;12.106;2024-02-23T10:34:47;8.90;99.90
15819;DHT22;8010;53.986;12.106;2024-02-23T10:37:15;9.00;99.90
15819;DHT22;8010;53.986;12.106;2024-02-23T10:39:40;8.90;99.90
15819;DHT22;8010;53.986;12.106;2024-02-23T10:42:09;9.00;99.90
15819;DHT22;8010;53.986;12.106;2024-02-23T10:44:35;9.20;99.90
15819;DHT22;8010;53.986;12.106;2024-02-23T10:47:02;9.30;99.90
15819;DHT22;8010;53.986;12.106;2024-02-23T10:49:28;9.40;99.90
15819;DHT22;8010;53.986;12.106;2024-02-23T10:51:55;9.60;99.90
15819;DHT22;8010;53.986;12.106;2024-02-23T10:54:20;9.80;99.90
15819;DHT22;8010;53.986;12.106;2024-02-23T10:56:48;9.90;99.90
15819;DHT22;8010;53.986;12.106;2024-02-23T10:59:14;9.90;99.90
15819;DHT22;8010;53.986;12.106;2024-02-23T11:01:48;9.80;99.90
15819;DHT22;8010;53.986;12.106;2024-02-23T11:04:16;9.60;99.90
15819;DHT22;8010;53.986;12.106;2024-02-23T11:06:42;9.60;99.90
15819;DHT22;8010;53.986;12.106;2024-02-23T11:09:08;9.80;99.90
15819;DHT22;8010;53.986;12.106;2024-02-23T11:11:37;9.80;99.90
15819;DHT22;8010;53.986;12.106;2024-02-23T11:14:07;9.90;99.90
15819;DHT22;8010;53.986;12.106;2024-02-23T11:16:38;9.90;99.90
15819;DHT22;8010;53.986;12.106;2024-02-23T11:19:05;9.90;99.90
15819;DHT22;8010;53.986;12.106;2024-02-23T11:21:34;9.80;99.90
15819;DHT22;8010;53.986;12.106;2024-02-23T11:24:03;9.80;99.90
15819;DHT22;8010;53.986;12.106;2024-02-23T11:26:29;10.00;99.90
15819;DHT22;8010;53.986;12.106;2024-02-23T11:28:54;10.30;99.90
15819;DHT22;8010;53.986;12.106;2024-02-23T11:31:22;10.50;99.90
15819;DHT22;8010;53.986;12.106;2024-02-23T11:33:52;10.50;99.90
15819;DHT22;8010;53.986;12.106;2024-02-23T11:36:35;10.40;99.90
15819;DHT22;8010;53.986;12.106;2024-02-23T11:39:01;10.20;99.90
15819;DHT22;8010;53.986;12.106;2024-02-23T11:41:28;9.90;99.90
15819;DHT22;8010;53.986;12.106;2024-02-23T11:43:54;10.10;99.90
15819;DHT22;8010;53.986;12.106;2024-02-23T11:46:21;10.20;99.90
15819;DHT22;8010;53.986;12.106;2024-02-23T11:48:47;10.10;99.90
15819;DHT22;8010;53.986;12.106;2024-02-23T11:51:22;9.90;99.90
15819;DHT22;8010;53.986;12.106;2024-02-23T11:53:48;10.20;99.90
15819;DHT22;8010;53.986;12.106;2024-02-23T11:56:14;10.40;99.90
15819;DHT22;8010;53.986;12.106;2024-02-23T11:58:40;10.70;99.90
15819;DHT22;8010;53.986;12.106;2024-02-23T12:01:06;10.70;99.90
15819;DHT22;8010;53.986;12.106;2024-02-23T12:03:32;10.70;99.90
15819;DHT22;8010;53.986;12.106;2024-02-23T12:06:02;10.50;99.90
15819;DHT22;8010;53.986;12.106;2024-02-23T12:08:30;10.50;99.90
15819;DHT22;8010;53.986;12.106;2024-02-23T12:10:57;10.50;99.90
15819;DHT22;8010;53.986;12.106;2024-02-23T12:13:26;10.40;99.90
15819;DHT22;8010;53.986;12.106;2024-02-23T12:15:52;10.30;99.90
15819;DHT22;8010;53.986;12.106;2024-02-23T12:18:21;10.60;99.90
15819;DHT22;8010;53.986;12.106;2024-02-23T12:20:49;10.70;99.90
15819;DHT22;8010;53.986;12.106;2024-02-23T12:23:14;10.70;99.90
15819;DHT22;8010;53.986;12.106;2024-02-23T12:25:40;10.90;99.90
15819;DHT22;8010;53.986;12.106;2024-02-23T12:28:06;11.00;99.90
15819;DHT22;8010;53.986;12.106;2024-02-23T12:30:31;11.20;99.90
15819;DHT22;8010;53.986;12.106;2024-02-23T12:33:07;11.20;99.90
15819;DHT22;8010;53.986;12.106;2024-02-23T12:35:34;11.10;99.90
15819;DHT22;8010;53.986;12.106;2024-02-23T12:38:01;11.10;99.90
15819;DHT22;8010;53.986;12.106;2024-02-23T12:40:26;11.10;99.90
15819;DHT22;8010;53.986;12.106;2024-02-23T12:42:52;11.00;99.90
15819;DHT22;8010;53.986;12.106;2024-02-23T12:45:18;11.10;99.90
15819;DHT22;8010;53.986;12.106;2024-02-23T12:47:43;11.00;99.90
15819;DHT22;8010;53.986;12.106;2024-02-23T12:50:09;11.10;99.90
15819;DHT22;8010;53.986;12.106;2024-02-23T12:52:35;11.10;99.90
15819;DHT22;8010;53.986;12.106;2024-02-23T12:55:01;11.20;99.90
15819;DHT22;8010;53.986;12.106;2024-02-23T12:57:26;11.10;99.90
15819;DHT22;8010;53.986;12.106;2024-02-23T12:59:52;11.30;99.90
15819;DHT22;8010;53.986;12.106;2024-02-23T13:02:17;11.30;99.90
15819;DHT22;8010;53.986;12.106;2024-02-23T13:04:43;11.40;99.90
15819;DHT22;8010;53.986;12.106;2024-02-23T13:07:14;11.50;99.90
15819;DHT22;8010;53.986;12.106;2024-02-23T13:09:40;11.70;99.90
15819;DHT22;8010;53.986;12.106;2024-02-23T13:12:05;11.50;99.90
15819;DHT22;8010;53.986;12.106;2024-02-23T13:14:31;11.40;99.90
15819;DHT22;8010;53.986;12.106;2024-02-23T13:16:56;11.60;99.90
15819;DHT22;8010;53.986;12.106;2024-02-23T13:19:22;11.70;99.90
15819;DHT22;8010;53.986;12.106;2024-02-23T13:21:47;11.80;99.90
15819;DHT22;8010;53.986;12.106;2024-02-23T13:24:13;11.70;99.90
15819;DHT22;8010;53.986;12.106;2024-02-23T13:26:38;11.80;99.90
15819;DHT22;8010;53.986;12.106;2024-02-23T13:29:04;11.90;99.90
15819;DHT22;8010;53.986;12.106;2024-02-23T13:31:29;12.00;99.90
15819;DHT22;8010;53.986;12.106;2024-02-23T13:33:55;11.90;99.90
15819;DHT22;8010;53.986;12.106;2024-02-23T13:36:20;11.80;99.90
15819;DHT22;8010;53.986;12.106;2024-02-23T13:38:46;11.80;99.90
15819;DHT22;8010;53.986;12.106;2024-02-23T13:41:11;12.00;99.90
15819;DHT22;8010;53.986;12.106;2024-02-23T13:43:37;11.90;99.90
15819;DHT22;8010;53.986;12.106;2024-02-23T13:46:03;11.80;99.90
15819;DHT22;8010;53.986;12.106;2024-02-23T13:48:29;11.70;99.90
15819;DHT22;8010;53.986;12.106;2024-02-23T13:50:55;11.90;99.90
15819;DHT22;8010;53.986;12.106;2024-02-23T13:53:20;11.60;99.90
15819;DHT22;8010;53.986;12.106;2024-02-23T13:55:46;11.40;99.90
15819;DHT22;8010;53.986;12.106;2024-02-23T13:58:11;11.40;99.90
15819;DHT22;8010;53.986;12.106;2024-02-23T14:00:37;11.50;99.90
15819;DHT22;8010;53.986;12.106;2024-02-23T14:03:03;11.60;99.90
15819;DHT22;8010;53.986;12.106;2024-02-23T14:05:29;11.60;99.90
15819;DHT22;8010;53.986;12.106;2024-02-23T14:07:54;11.70;99.90
15819;DHT22;8010;53.986;12.106;2024-02-23T14:10:20;11.60;99.90
15819;DHT22;8010;53.986;12.106;2024-02-23T14:12:46;11.30;99.90
15819;DHT22;8010;53.986;12.106;2024-02-23T14:15:11;11.00;99.90
15819;DHT22;8010;53.986;12.106;2024-02-23T14:17:38;10.90;99.90
15819;DHT22;8010;53.986;12.106;2024-02-23T14:20:04;10.80;99.90
15819;DHT22;8010;53.986;12.106;2024-02-23T14:22:30;10.70;99.90
15819;DHT22;8010;53.986;12.106;2024-02-23T14:24:55;10.60;99.90
15819;DHT22;8010;53.986;12.106;2024-02-23T14:27:21;10.40;99.90
15819;DHT22;8010;53.986;12.106;2024-02-23T14:29:47;10.20;99.90
15819;DHT22;8010;53.986;12.106;2024-02-23T14:32:17;10.20;99.90
15819;DHT22;8010;53.986;12.106;2024-02-23T14:34:43;10.10;99.90
15819;DHT22;8010;53.986;12.106;2024-02-23T14:37:08;10.10;99.90
15819;DHT22;8010;53.986;12.106;2024-02-23T14:39:34;10.10;99.90
15819;DHT22;8010;53.986;12.106;2024-02-23T14:42:02;10.00;99.90
15819;DHT22;8010;53.986;12.106;2024-02-23T14:44:28;10.00;99.90
15819;DHT22;8010;53.986;12.106;2024-02-23T14:46:54;9.90;99.90
15819;DHT22;8010;53.986;12.106;2024-02-23T14:49:19;9.90;99.90
15819;DHT22;8010;53.986;12.106;2024-02-23T14:51:45;9.80;99.90
15819;DHT22;8010;53.986;12.106;2024-02-23T14:54:12;9.80;99.90
15819;DHT22;8010;53.986;12.106;2024-02-23T14:56:38;9.80;99.90
15819;DHT22;8010;53.986;12.106;2024-02-23T14:59:06;9.70;99.90
15819;DHT22;8010;53.986;12.106;2024-02-23T15:01:36;9.70;99.90
15819;DHT22;8010;53.986;12.106;2024-02-23T15:04:02;9.70;99.90
15819;DHT22;8010;53.986;12.106;2024-02-23T15:06:27;9.60;99.90
15819;DHT22;8010;53.986;12.106;2024-02-23T15:08:53;9.60;99.90
15819;DHT22;8010;53.986;12.106;2024-02-23T15:11:18;9.60;99.90
15819;DHT22;8010;53.986;12.106;2024-02-23T15:13:44;9.60;99.90
15819;DHT22;8010;53.986;12.106;2024-02-23T15:16:09;9.60;99.90
15819;DHT22;8010;53.986;12.106;2024-02-23T15:18:35;9.60;99.90
15819;DHT22;8010;53.986;12.106;2024-02-23T15:21:01;9.50;99.90
15819;DHT22;8010;53.986;12.106;2024-02-23T15:23:26;9.50;99.90
15819;DHT22;8010;53.986;12.106;2024-02-23T15:25:52;9.50;99.90
15819;DHT22;8010;53.986;12.106;2024-02-23T15:28:19;9.50;99.90
15819;DHT22;8010;53.986;12.106;2024-02-23T15:30:49;9.40;99.90
15819;DHT22;8010;53.986;12.106;2024-02-23T15:33:14;9.40;99.90